Terminal Aerodrome Forecast
Issued by NWS

Home | Current Version | Previous Version | Text Only | Print | Product List | Glossary On
Versions: 1 2 3 4 5 6 7 8 9 10 11 12
000
FTUS46 KMFR 292333
TAFLMT
TAF
KLMT 292333Z 3000/3024 33017G26KT P6SM BKN050
     FM300400 33011KT P6SM SCT060
     FM300900 31008KT P6SM SCT020 SCT040
     FM301700 35019G28KT P6SM SCT040=

USA.gov is the U.S. government's official web portal to all federal, state and local government web resources and services.